Time;durP1;ratioP1;P1;durP2;ratioP2;P2;SDS_P1;SDS_P2;PMS_P1;PMS_P2;Temp;Humidity;BMP_temperature;BMP_pressure;BME280_temperature;BME280_humidity;BME280_pressure;Samples;Min_cycle;Max_cycle;Signal;HPM_P1;HPM_P2
2022/01/17 00:00:07;;;;;;;13.50;11.13;;;5.80;80.00;;;;;;5092521;28;20492;-44
2022/01/17 00:02:33;;;;;;;14.33;10.47;;;5.80;80.50;;;;;;5098138;28;20196;-44
2022/01/17 00:04:59;;;;;;;11.60;10.40;;;5.70;80.90;;;;;;5098302;28;20419;-44
2022/01/17 00:07:29;;;;;;;11.50;10.00;;;5.70;81.50;;;;;;5098451;28;20257;-43
2022/01/17 00:09:55;;;;;;;12.03;10.67;;;5.60;81.80;;;;;;5098567;28;20180;-44
2022/01/17 00:12:20;;;;;;;11.17;9.97;;;5.60;82.30;;;;;;5098635;28;20458;-44
2022/01/17 00:14:47;;;;;;;13.00;10.60;;;5.50;82.50;;;;;;5098194;28;20263;-44
2022/01/17 00:19:43;;;;;;;12.30;10.00;;;5.50;83.40;;;;;;5098741;28;20433;-44
2022/01/17 00:22:10;;;;;;;10.37;8.43;;;5.50;83.80;;;;;;5098836;28;20268;-44
2022/01/17 00:24:35;;;;;;;15.00;9.90;;;5.50;84.30;;;;;;5099617;28;20640;-45
2022/01/17 00:27:01;;;;;;;11.67;9.10;;;5.40;84.60;;;;;;5105426;28;20472;-44
2022/01/17 00:29:27;;;;;;;11.37;9.40;;;5.40;84.90;;;;;;5119188;28;20184;-45
2022/01/17 00:31:53;;;;;;;10.33;8.70;;;5.40;85.20;;;;;;5112578;28;20192;-44
2022/01/17 00:34:20;;;;;;;11.37;8.77;;;5.40;85.50;;;;;;5098673;28;20447;-45
2022/01/17 00:36:46;;;;;;;11.53;9.80;;;5.30;85.60;;;;;;5098679;28;20886;-44
2022/01/17 00:39:11;;;;;;;14.70;10.40;;;5.30;85.70;;;;;;5080028;28;20180;-44
2022/01/17 00:41:37;;;;;;;11.20;9.50;;;5.30;86.00;;;;;;5099068;28;20467;-45
2022/01/17 00:44:04;;;;;;;10.07;8.60;;;5.30;86.30;;;;;;5098447;28;20459;-43
2022/01/17 00:46:30;;;;;;;12.20;10.40;;;5.30;86.50;;;;;;5098992;28;20196;-44
2022/01/17 00:48:55;;;;;;;11.97;10.23;;;5.30;86.70;;;;;;5080617;28;20435;-44
2022/01/17 00:51:24;;;;;;;10.80;9.60;;;5.30;87.00;;;;;;5098750;28;20483;-44
2022/01/17 00:53:50;;;;;;;11.47;9.50;;;5.20;87.10;;;;;;5098060;28;20281;-44
2022/01/17 00:56:18;;;;;;;11.43;9.73;;;5.20;87.10;;;;;;5098143;28;20817;-44
2022/01/17 00:58:46;;;;;;;11.30;9.87;;;5.20;87.30;;;;;;5098311;28;20422;-44
2022/01/17 01:01:12;;;;;;;11.63;9.47;;;5.20;88.10;;;;;;5098245;28;20664;-45
2022/01/17 01:03:38;;;;;;;11.70;10.50;;;5.20;87.50;;;;;;5098335;28;20423;-44
2022/01/17 01:06:04;;;;;;;12.80;11.13;;;5.20;87.50;;;;;;5098287;28;20418;-44
2022/01/17 01:08:30;;;;;;;10.73;9.63;;;5.20;87.50;;;;;;5098517;28;20460;-45
2022/01/17 01:10:59;;;;;;;11.97;10.23;;;5.20;87.60;;;;;;5083181;28;20421;-45
2022/01/17 01:13:28;;;;;;;10.83;9.57;;;5.20;87.60;;;;;;5118193;28;20521;-42
2022/01/17 01:28:56;;;;;;;13.30;10.87;;;5.10;87.80;;;;;;5116800;28;20487;-44
2022/01/17 01:31:32;;;;;;;13.93;10.40;;;5.10;87.90;;;;;;5117297;28;20875;-44
2022/01/17 01:34:04;;;;;;;13.80;10.63;;;5.10;88.10;;;;;;5117021;28;20480;-43
2022/01/17 01:36:30;;;;;;;13.40;10.70;;;5.10;88.10;;;;;;5117158;28;20422;-44
2022/01/17 01:38:56;;;;;;;12.97;11.50;;;5.10;88.10;;;;;;5116954;28;20422;-43
2022/01/17 01:41:24;;;;;;;14.07;10.50;;;5.10;88.10;;;;;;5118502;28;20420;-44
2022/01/17 01:43:49;;;;;;;12.33;10.03;;;5.10;88.30;;;;;;5118192;28;20188;-44
2022/01/17 01:46:19;;;;;;;11.87;10.23;;;5.10;88.40;;;;;;5100008;28;20486;-45
2022/01/17 01:48:44;;;;;;;11.10;9.00;;;5.10;88.50;;;;;;5117959;28;20184;-45
2022/01/17 01:51:10;;;;;;;13.60;10.43;;;5.10;88.70;;;;;;5101657;28;20525;-44
2022/01/17 01:53:37;;;;;;;11.70;10.17;;;5.00;88.70;;;;;;5122207;28;20473;-45
2022/01/17 01:56:05;;;;;;;13.77;10.50;;;5.10;88.90;;;;;;5122456;28;20615;-44
2022/01/17 01:58:31;;;;;;;14.10;10.80;;;5.10;89.00;;;;;;5122111;28;20464;-44
2022/01/17 02:00:59;;;;;;;13.40;10.27;;;5.00;89.00;;;;;;5117732;28;20458;-44
2022/01/17 02:03:24;;;;;;;13.73;10.57;;;5.00;89.10;;;;;;5108176;28;20201;-45
2022/01/17 02:05:50;;;;;;;13.50;11.70;;;5.00;89.20;;;;;;5118484;28;20523;-45
2022/01/17 02:08:16;;;;;;;12.93;10.30;;;5.00;89.40;;;;;;5107602;28;20199;-45
2022/01/17 02:10:42;;;;;;;13.47;10.50;;;5.00;89.50;;;;;;5101849;28;20481;-45
2022/01/17 02:13:08;;;;;;;12.43;10.13;;;5.00;89.60;;;;;;5101639;28;20470;-45
2022/01/17 02:15:36;;;;;;;14.17;10.40;;;5.00;89.50;;;;;;5100426;28;20941;-44
2022/01/17 02:18:03;;;;;;;11.67;9.63;;;5.00;89.50;;;;;;5099775;28;20524;-45
2022/01/17 02:20:45;;;;;;;14.30;10.83;;;5.00;89.50;;;;;;5100240;28;20897;-45
2022/01/17 02:23:14;;;;;;;13.17;10.40;;;5.00;89.50;;;;;;5098805;28;20418;-45
2022/01/17 02:25:41;;;;;;;12.03;10.60;;;5.00;89.50;;;;;;5099886;28;20675;-45
2022/01/17 02:28:06;;;;;;;12.37;10.73;;;5.00;89.70;;;;;;5099953;28;20635;-44
2022/01/17 02:30:32;;;;;;;11.00;9.87;;;5.00;89.80;;;;;;5101004;28;20479;-44
2022/01/17 02:33:00;;;;;;;11.33;9.93;;;5.00;89.60;;;;;;5100905;28;20280;-45
2022/01/17 02:35:25;;;;;;;12.10;10.10;;;5.00;89.70;;;;;;5101259;28;20444;-44
2022/01/17 02:37:52;;;;;;;13.03;11.10;;;5.00;89.70;;;;;;5102702;28;20452;-44
2022/01/17 02:40:18;;;;;;;13.47;10.70;;;5.10;89.80;;;;;;5114287;28;20468;-45
2022/01/17 02:42:55;;;;;;;13.17;9.30;;;5.00;89.80;;;;;;5106982;28;20437;-44
2022/01/17 02:46:24;;;;;;;13.83;10.80;;;5.00;89.90;;;;;;5107135;28;20425;-44
2022/01/17 02:48:30;;;;;;;12.60;10.77;;;5.00;90.00;;;;;;5099722;28;20530;-45
2022/01/17 02:50:57;;;;;;;13.70;10.43;;;5.00;90.00;;;;;;5100773;28;20421;-45
2022/01/17 02:53:24;;;;;;;13.30;11.07;;;5.00;90.10;;;;;;5100644;28;20569;-45
2022/01/17 02:55:55;;;;;;;11.20;9.33;;;5.00;90.10;;;;;;5100147;28;20419;-45
2022/01/17 02:58:22;;;;;;;14.07;10.63;;;5.00;90.20;;;;;;5099725;28;20450;-43
2022/01/17 03:00:52;;;;;;;12.03;10.03;;;5.00;90.20;;;;;;5099309;28;20430;-44
2022/01/17 03:03:20;;;;;;;11.97;10.00;;;5.00;90.20;;;;;;5080501;28;20541;-43
2022/01/17 03:05:48;;;;;;;15.80;11.93;;;5.00;90.30;;;;;;5081846;28;20509;-43
2022/01/17 03:08:15;;;;;;;11.87;9.90;;;5.00;90.30;;;;;;5099556;28;20499;-44
2022/01/17 03:10:43;;;;;;;12.63;10.50;;;5.00;90.40;;;;;;5099733;28;20419;-43
2022/01/17 03:13:17;;;;;;;14.37;10.83;;;5.00;90.40;;;;;;5100569;28;20792;-44
2022/01/17 03:15:44;;;;;;;11.07;9.80;;;4.90;90.50;;;;;;5100354;28;20427;-43
2022/01/17 03:18:10;;;;;;;13.67;9.80;;;4.90;90.50;;;;;;5100577;28;20881;-43
2022/01/17 03:20:39;;;;;;;13.53;10.87;;;4.90;90.70;;;;;;5100164;28;20419;-44
2022/01/17 03:23:06;;;;;;;11.30;9.83;;;4.90;90.70;;;;;;5082316;28;20511;-43
2022/01/17 03:25:32;;;;;;;11.10;9.13;;;4.90;90.80;;;;;;5100391;28;20813;-44
2022/01/17 03:27:58;;;;;;;13.60;10.83;;;4.90;90.90;;;;;;5100062;28;20482;-44
2022/01/17 03:30:24;;;;;;;12.23;9.90;;;4.90;91.00;;;;;;5100236;28;20413;-43
2022/01/17 03:32:50;;;;;;;12.70;9.93;;;4.90;91.00;;;;;;5100280;28;20474;-43
2022/01/17 03:35:16;;;;;;;11.90;9.20;;;4.90;91.00;;;;;;5100112;28;20436;-44
2022/01/17 03:37:42;;;;;;;11.50;9.33;;;4.90;91.00;;;;;;5082032;28;20411;-44
2022/01/17 03:40:09;;;;;;;9.33;8.23;;;4.90;91.00;;;;;;5099633;28;20437;-44
2022/01/17 03:42:36;;;;;;;12.20;9.77;;;4.90;91.10;;;;;;5099256;28;20434;-44
2022/01/17 03:45:03;;;;;;;13.80;9.97;;;4.90;91.10;;;;;;5099104;28;20410;-44
2022/01/17 03:47:30;;;;;;;10.30;8.80;;;4.90;91.20;;;;;;5098266;28;20481;-43
2022/01/17 03:49:55;;;;;;;10.73;9.33;;;4.90;91.20;;;;;;5098170;28;20429;-44
2022/01/17 03:52:21;;;;;;;12.30;8.60;;;4.90;91.20;;;;;;5102594;28;20476;-44
2022/01/17 03:54:46;;;;;;;13.57;9.80;;;4.90;91.20;;;;;;5110675;28;20193;-44
2022/01/17 03:57:12;;;;;;;10.13;7.93;;;4.90;91.20;;;;;;5099725;28;20180;-44
2022/01/17 03:59:40;;;;;;;10.77;9.07;;;4.90;91.20;;;;;;5099784;28;20329;-44
2022/01/17 04:02:06;;;;;;;10.00;8.57;;;4.90;91.20;;;;;;5099299;28;20185;-44
2022/01/17 04:04:31;;;;;;;9.60;8.20;;;5.00;91.20;;;;;;5099341;28;20433;-44
2022/01/17 04:06:57;;;;;;;10.00;8.20;;;5.00;91.20;;;;;;5098801;28;20212;-43
2022/01/17 04:09:23;;;;;;;8.47;7.60;;;5.00;91.10;;;;;;5099308;28;20208;-43
2022/01/17 04:11:48;;;;;;;9.13;7.67;;;5.00;91.10;;;;;;5099020;28;20569;-44
2022/01/17 04:14:16;;;;;;;8.83;7.30;;;5.00;91.00;;;;;;5098644;28;20222;-44
2022/01/17 04:16:42;;;;;;;8.53;7.10;;;5.00;91.10;;;;;;5098766;28;20196;-44
2022/01/17 04:19:09;;;;;;;10.03;7.93;;;5.00;91.10;;;;;;5098715;28;20407;-44
2022/01/17 04:21:36;;;;;;;9.20;7.27;;;5.00;91.10;;;;;;5098325;28;20185;-44
2022/01/17 04:24:04;;;;;;;9.77;8.10;;;5.00;91.50;;;;;;5097900;28;20847;-44
2022/01/17 04:26:32;;;;;;;8.17;6.70;;;5.00;91.30;;;;;;5098426;28;20420;-44
2022/01/17 04:28:58;;;;;;;9.30;7.70;;;5.00;91.40;;;;;;5098354;28;20770;-44
2022/01/17 04:31:24;;;;;;;8.90;7.60;;;5.00;91.60;;;;;;5098169;28;20557;-44
2022/01/17 04:33:49;;;;;;;8.37;6.60;;;4.90;91.60;;;;;;5097879;28;20219;-43
2022/01/17 04:36:15;;;;;;;10.03;8.07;;;4.90;91.90;;;;;;5098457;28;20212;-44
2022/01/17 04:38:40;;;;;;;11.33;7.37;;;4.90;91.90;;;;;;5098385;28;20645;-44
2022/01/17 04:41:14;;;;;;;9.10;7.17;;;4.90;92.00;;;;;;5098541;28;20172;-43
2022/01/17 04:46:07;;;;;;;9.53;8.37;;;4.90;92.30;;;;;;5098196;28;20418;-43
2022/01/17 04:48:33;;;;;;;11.30;8.00;;;4.90;92.40;;;;;;5097856;28;20191;-44
2022/01/17 04:50:59;;;;;;;10.60;7.70;;;4.90;92.50;;;;;;5098639;28;20813;-44
2022/01/17 04:53:26;;;;;;;8.53;7.63;;;4.90;92.70;;;;;;5098025;28;20477;-44
2022/01/17 04:55:51;;;;;;;10.73;8.70;;;4.90;92.70;;;;;;5097377;28;20426;-44
2022/01/17 04:58:17;;;;;;;9.67;8.20;;;4.90;92.80;;;;;;5097724;28;20744;-43
2022/01/17 05:00:46;;;;;;;8.50;7.60;;;4.90;92.90;;;;;;5096977;28;20418;-44
2022/01/17 05:03:19;;;;;;;8.67;7.07;;;4.80;92.90;;;;;;5096948;28;20430;-47
2022/01/17 05:05:45;;;;;;;8.60;7.17;;;4.80;93.10;;;;;;5096265;28;20458;-47
2022/01/17 05:08:11;;;;;;;11.30;8.07;;;4.90;93.30;;;;;;5094984;28;20444;-47
2022/01/17 05:10:37;;;;;;;8.83;7.40;;;4.90;93.40;;;;;;5096691;28;20522;-47
2022/01/17 05:13:06;;;;;;;10.50;7.97;;;4.90;93.40;;;;;;5096660;28;20561;-47
2022/01/17 05:15:35;;;;;;;12.73;8.93;;;4.90;93.40;;;;;;5078563;28;20515;-46
2022/01/17 05:20:40;;;;;;;8.77;6.90;;;5.00;93.50;;;;;;5096876;28;20476;-47
2022/01/17 05:23:06;;;;;;;9.80;7.33;;;4.90;93.50;;;;;;5097124;28;20449;-47
2022/01/17 05:25:32;;;;;;;10.77;8.20;;;5.00;93.60;;;;;;5096652;28;20434;-47
2022/01/17 05:27:58;;;;;;;8.60;7.50;;;5.00;93.60;;;;;;5090934;28;20467;-47
2022/01/17 05:30:24;;;;;;;8.47;6.67;;;5.00;93.60;;;;;;5089291;28;20184;-47
2022/01/17 05:32:51;;;;;;;10.10;8.13;;;5.00;93.70;;;;;;5063862;28;20243;-47
2022/01/17 05:35:17;;;;;;;9.43;7.33;;;5.00;93.70;;;;;;5080033;28;20473;-47
2022/01/17 05:37:43;;;;;;;10.17;7.60;;;5.00;93.70;;;;;;5081321;28;20473;-47
2022/01/17 05:40:10;;;;;;;8.83;7.43;;;5.00;93.70;;;;;;5094831;28;20778;-47
2022/01/17 05:42:36;;;;;;;10.70;8.03;;;5.00;93.70;;;;;;5095744;28;20433;-47
2022/01/17 05:45:05;;;;;;;10.30;8.17;;;5.00;93.70;;;;;;5095997;28;20500;-47
2022/01/17 05:47:32;;;;;;;8.70;7.40;;;5.00;93.70;;;;;;5095822;28;20650;-47
2022/01/17 05:49:59;;;;;;;9.60;7.63;;;5.00;93.80;;;;;;5095743;28;20455;-46
2022/01/17 05:52:24;;;;;;;11.87;7.60;;;5.00;93.80;;;;;;5094954;28;20477;-47
2022/01/17 05:54:50;;;;;;;9.13;7.70;;;5.10;93.90;;;;;;5095559;28;20430;-48
2022/01/17 05:57:18;;;;;;;8.20;7.20;;;5.00;93.90;;;;;;5096013;28;20265;-48
2022/01/17 05:59:44;;;;;;;9.17;7.17;;;5.00;93.90;;;;;;5095846;28;20434;-48
2022/01/17 06:02:09;;;;;;;9.73;7.57;;;5.00;94.00;;;;;;5096078;28;20511;-48
2022/01/17 06:04:35;;;;;;;9.87;7.93;;;5.00;94.00;;;;;;5094877;28;20681;-48
2022/01/17 06:07:01;;;;;;;9.07;7.40;;;5.00;94.00;;;;;;5094669;28;20213;-48
2022/01/17 06:09:27;;;;;;;9.70;8.00;;;5.00;94.10;;;;;;5093231;28;20672;-48
2022/01/17 06:11:53;;;;;;;8.03;6.60;;;5.00;94.20;;;;;;5093771;28;20422;-48
2022/01/17 06:14:19;;;;;;;9.73;7.10;;;5.10;94.30;;;;;;5093692;28;20209;-48
2022/01/17 06:16:45;;;;;;;7.40;6.60;;;5.00;94.40;;;;;;5093722;28;20285;-48
2022/01/17 06:19:12;;;;;;;7.90;6.33;;;5.00;94.50;;;;;;5074640;28;20436;-48
2022/01/17 06:21:37;;;;;;;8.60;6.50;;;5.00;94.60;;;;;;5092700;28;20459;-48
2022/01/17 06:24:05;;;;;;;7.63;6.80;;;5.00;94.80;;;;;;5093141;28;20805;-48
2022/01/17 06:26:33;;;;;;;7.23;6.37;;;5.00;94.90;;;;;;5087011;28;20193;-48
2022/01/17 06:28:59;;;;;;;7.27;6.50;;;5.00;94.90;;;;;;5104325;28;20439;-48
2022/01/17 06:31:24;;;;;;;8.00;6.43;;;5.00;95.00;;;;;;5106115;28;20464;-48
2022/01/17 06:33:50;;;;;;;8.30;6.67;;;5.00;95.00;;;;;;5100863;28;20885;-48
2022/01/17 06:36:18;;;;;;;6.60;5.90;;;5.00;95.10;;;;;;5113805;28;20187;-47
2022/01/17 06:38:43;;;;;;;7.53;6.50;;;5.00;95.10;;;;;;5116891;28;20245;-47
2022/01/17 06:41:10;;;;;;;7.00;6.30;;;5.00;95.20;;;;;;5116358;28;20502;-47
2022/01/17 06:43:36;;;;;;;6.87;6.17;;;5.00;95.20;;;;;;5117167;28;20180;-47
2022/01/17 06:46:01;;;;;;;7.53;6.80;;;5.00;95.20;;;;;;5116306;28;20426;-47
2022/01/17 06:48:27;;;;;;;7.37;6.60;;;5.00;95.20;;;;;;5115132;28;20227;-47
2022/01/17 06:50:53;;;;;;;8.53;6.47;;;5.00;95.20;;;;;;5096785;28;20199;-47
2022/01/17 06:53:18;;;;;;;7.60;6.80;;;5.00;95.30;;;;;;5114907;28;20499;-47
2022/01/17 06:55:44;;;;;;;7.60;6.80;;;5.00;95.40;;;;;;5114256;28;20183;-47
2022/01/17 06:58:10;;;;;;;7.20;6.40;;;5.00;95.50;;;;;;5116047;28;20177;-47
2022/01/17 07:00:35;;;;;;;8.10;5.67;;;5.00;95.50;;;;;;5116265;28;20569;-47
2022/01/17 07:03:01;;;;;;;6.23;5.60;;;5.00;95.50;;;;;;5117702;28;20180;-47
2022/01/17 07:05:29;;;;;;;6.50;5.57;;;5.00;95.50;;;;;;5118178;28;20194;-47
2022/01/17 07:07:56;;;;;;;6.30;5.70;;;5.00;95.60;;;;;;5100103;28;20194;-47
2022/01/17 07:10:25;;;;;;;7.37;6.10;;;5.00;95.70;;;;;;5098756;28;20433;-47
2022/01/17 07:12:51;;;;;;;6.67;5.87;;;5.00;95.60;;;;;;5117291;28;20466;-47
2022/01/17 07:15:17;;;;;;;6.30;5.70;;;5.00;95.60;;;;;;5117394;28;20424;-47
2022/01/17 07:17:42;;;;;;;6.60;6.00;;;5.00;95.50;;;;;;5117124;28;20203;-47
2022/01/17 07:20:08;;;;;;;7.90;6.10;;;5.00;95.60;;;;;;5116497;28;20226;-47
2022/01/17 07:22:34;;;;;;;7.10;6.30;;;5.00;95.50;;;;;;5099045;28;20208;-47
2022/01/17 07:25:00;;;;;;;6.20;5.33;;;5.00;95.50;;;;;;5099667;28;20506;-47
2022/01/17 07:27:25;;;;;;;7.20;6.50;;;5.00;95.50;;;;;;5115928;28;20236;-47
2022/01/17 07:29:51;;;;;;;8.73;6.77;;;5.10;95.40;;;;;;5115731;28;20419;-47
2022/01/17 07:32:17;;;;;;;8.10;6.63;;;5.10;95.40;;;;;;5115514;28;20773;-47
2022/01/17 07:34:44;;;;;;;9.47;7.47;;;5.10;95.40;;;;;;5114958;28;20851;-48
2022/01/17 07:37:10;;;;;;;7.07;6.37;;;5.10;95.40;;;;;;5116082;28;20860;-47
2022/01/17 07:39:36;;;;;;;8.10;6.43;;;5.10;95.40;;;;;;5116124;28;20971;-47
2022/01/17 07:42:02;;;;;;;8.73;7.87;;;5.10;95.30;;;;;;5115686;28;20180;-47
2022/01/17 07:44:29;;;;;;;8.40;7.57;;;5.20;95.30;;;;;;5097419;28;20590;-47
2022/01/17 07:46:58;;;;;;;7.87;6.50;;;5.20;95.30;;;;;;5099573;28;20447;-47
2022/01/17 07:49:27;;;;;;;8.93;6.70;;;5.20;95.20;;;;;;5118386;28;20414;-47
2022/01/17 07:51:59;;;;;;;8.33;6.87;;;5.30;95.20;;;;;;5117423;28;20440;-47
2022/01/17 07:54:29;;;;;;;7.97;6.70;;;5.30;95.00;;;;;;5116990;28;20469;-47
2022/01/17 07:56:56;;;;;;;9.57;6.47;;;5.30;94.90;;;;;;5100047;28;20513;-47
2022/01/17 07:59:23;;;;;;;7.93;6.23;;;5.40;94.80;;;;;;5117870;28;20414;-48
2022/01/17 08:01:49;;;;;;;8.27;6.67;;;5.50;94.80;;;;;;5116051;28;20448;-47
2022/01/17 08:04:16;;;;;;;6.67;5.60;;;5.50;94.60;;;;;;5098613;28;20580;-47
2022/01/17 08:06:42;;;;;;;7.03;6.30;;;5.50;94.50;;;;;;5114756;28;20939;-47
2022/01/17 08:09:12;;;;;;;7.67;5.83;;;5.50;94.40;;;;;;5113975;28;20532;-47
2022/01/17 08:11:38;;;;;;;8.27;5.50;;;5.50;94.40;;;;;;5114356;28;20577;-47
2022/01/17 08:14:04;;;;;;;7.33;6.13;;;5.60;94.40;;;;;;5115601;28;20746;-47
2022/01/17 08:16:30;;;;;;;9.50;6.40;;;5.60;94.30;;;;;;5115581;28;20199;-47
2022/01/17 08:18:55;;;;;;;9.00;6.40;;;5.60;94.20;;;;;;5094224;28;20704;-48
2022/01/17 08:21:22;;;;;;;7.37;6.00;;;5.70;94.20;;;;;;5095045;28;20184;-48
2022/01/17 08:23:48;;;;;;;7.30;6.27;;;5.80;94.10;;;;;;5105710;28;20198;-46
2022/01/17 08:26:14;;;;;;;8.83;6.20;;;5.90;93.90;;;;;;5092957;28;20430;-46
2022/01/17 08:28:41;;;;;;;7.80;6.20;;;6.00;93.70;;;;;;5092106;28;20451;-47
2022/01/17 08:31:07;;;;;;;10.47;6.60;;;6.00;93.60;;;;;;5093405;28;20629;-47
2022/01/17 08:33:42;;;;;;;9.77;6.93;;;6.00;93.30;;;;;;5094215;28;20474;-48
2022/01/17 08:36:08;;;;;;;9.50;7.60;;;6.00;93.30;;;;;;5093743;28;20425;-47
2022/01/17 08:38:35;;;;;;;7.47;6.77;;;6.00;93.30;;;;;;5092910;28;20414;-48
2022/01/17 08:41:05;;;;;;;8.93;7.00;;;6.10;93.30;;;;;;5095127;28;20173;-47
2022/01/17 08:43:30;;;;;;;7.17;6.40;;;6.10;93.30;;;;;;5093943;28;20423;-47
2022/01/17 08:45:56;;;;;;;8.30;7.10;;;6.10;93.30;;;;;;5075155;28;20499;-48
2022/01/17 08:48:22;;;;;;;8.80;6.70;;;6.20;93.20;;;;;;5092240;28;20191;-48
2022/01/17 08:50:50;;;;;;;6.80;5.97;;;6.30;93.20;;;;;;5093711;28;20183;-47
2022/01/17 08:53:17;;;;;;;8.53;6.80;;;6.60;93.30;;;;;;5092509;28;20208;-48
2022/01/17 08:55:44;;;;;;;6.67;5.80;;;7.00;93.00;;;;;;5092210;28;20472;-47
2022/01/17 08:58:11;;;;;;;6.87;5.70;;;7.70;92.20;;;;;;5092734;28;20412;-48
2022/01/17 09:00:37;;;;;;;8.30;6.27;;;9.20;91.90;;;;;;5095103;28;20407;-48
2022/01/17 09:03:04;;;;;;;7.77;6.70;;;11.10;89.50;;;;;;5094968;28;20679;-48
2022/01/17 09:05:31;;;;;;;8.07;6.93;;;13.20;81.00;;;;;;5093389;28;20418;-48
2022/01/17 09:07:57;;;;;;;6.60;6.00;;;15.00;72.20;;;;;;5093186;28;20868;-46
2022/01/17 09:10:23;;;;;;;7.30;6.10;;;16.50;63.40;;;;;;5093991;28;20417;-48
2022/01/17 09:12:51;;;;;;;6.20;5.60;;;17.10;58.00;;;;;;5094215;28;20472;-48
2022/01/17 09:15:17;;;;;;;6.57;5.33;;;17.50;55.10;;;;;;5094158;28;20414;-48
2022/01/17 09:17:42;;;;;;;5.90;5.30;;;17.30;53.80;;;;;;5093340;28;20423;-48
2022/01/17 09:20:08;;;;;;;6.93;6.23;;;16.50;53.20;;;;;;5093122;28;20421;-48
2022/01/17 09:22:36;;;;;;;6.90;6.20;;;15.50;53.80;;;;;;5094711;28;20188;-48
2022/01/17 09:25:06;;;;;;;7.70;6.60;;;14.70;54.40;;;;;;5093552;28;20717;-48
2022/01/17 09:27:35;;;;;;;8.10;6.33;;;13.90;55.30;;;;;;5094776;28;20828;-48
2022/01/17 09:30:04;;;;;;;7.00;6.13;;;13.60;55.80;;;;;;5076391;28;20501;-48
2022/01/17 09:32:30;;;;;;;7.00;6.30;;;13.10;56.70;;;;;;5094703;28;20460;-47
2022/01/17 09:34:55;;;;;;;7.00;6.30;;;12.70;57.70;;;;;;5096763;28;20416;-46
2022/01/17 09:37:21;;;;;;;6.67;6.00;;;12.70;58.70;;;;;;5096530;28;20179;-47
2022/01/17 09:39:47;;;;;;;6.67;5.63;;;13.40;59.20;;;;;;5096235;28;20180;-48
2022/01/17 09:42:12;;;;;;;7.13;5.30;;;14.10;57.70;;;;;;5078284;28;20175;-48
2022/01/17 09:44:38;;;;;;;6.43;5.83;;;14.60;56.80;;;;;;5094816;28;20179;-47
2022/01/17 09:47:06;;;;;;;9.50;5.73;;;14.80;55.80;;;;;;5095597;28;20168;-46
2022/01/17 09:54:54;;;;;;;5.73;5.13;;;14.70;55.30;;;;;;5093391;28;20426;-47
2022/01/17 09:57:25;;;;;;;5.57;5.07;;;14.60;55.30;;;;;;5093355;28;20415;-47
2022/01/17 09:59:51;;;;;;;6.27;5.67;;;14.50;55.60;;;;;;5111712;28;20422;-47
2022/01/17 10:02:17;;;;;;;5.63;5.13;;;14.70;55.60;;;;;;5114885;28;20412;-47
2022/01/17 10:04:44;;;;;;;5.57;5.07;;;14.90;55.70;;;;;;5114860;28;20542;-47
2022/01/17 10:07:10;;;;;;;6.13;5.53;;;15.00;55.20;;;;;;5116016;28;20876;-47
2022/01/17 10:09:39;;;;;;;6.07;5.47;;;14.90;54.70;;;;;;5115295;28;20450;-47
2022/01/17 10:12:12;;;;;;;5.53;4.93;;;15.00;54.60;;;;;;5118090;28;20168;-47
2022/01/17 10:14:39;;;;;;;5.30;4.80;;;15.30;54.40;;;;;;5120667;28;20873;-47
2022/01/17 10:17:11;;;;;;;4.83;4.33;;;15.60;53.50;;;;;;5120023;28;20819;-47
2022/01/17 10:19:38;;;;;;;5.90;5.30;;;16.20;54.10;;;;;;5118390;28;20425;-47
2022/01/17 10:22:11;;;;;;;5.97;5.03;;;17.40;53.40;;;;;;5119188;28;20482;-47
2022/01/17 10:30:23;;;;;;;4.87;4.40;;;22.30;45.60;;;;;;5115458;28;20897;-47
2022/01/17 10:35:38;;;;;;;4.03;3.70;;;24.60;40.50;;;;;;5116765;28;20485;-47
2022/01/17 10:38:14;;;;;;;4.30;3.90;;;25.50;38.60;;;;;;5117991;28;20762;-47
2022/01/17 10:40:46;;;;;;;3.93;3.63;;;26.20;36.90;;;;;;5117955;28;20425;-48
2022/01/17 10:43:38;;;;;;;4.90;4.20;;;26.80;34.70;;;;;;5098233;28;20418;-48
2022/01/17 10:46:14;;;;;;;3.30;3.00;;;26.50;33.90;;;;;;5116380;28;20816;-47
2022/01/17 10:48:44;;;;;;;4.00;3.63;;;25.40;33.40;;;;;;5098608;28;20462;-48
2022/01/17 10:51:12;;;;;;;3.70;3.40;;;23.80;34.40;;;;;;5099119;28;20437;-48
2022/01/17 10:53:40;;;;;;;3.13;2.83;;;22.40;35.50;;;;;;5099312;28;20917;-49
2022/01/17 10:56:08;;;;;;;3.43;3.13;;;21.20;36.60;;;;;;5098729;28;20519;-48
2022/01/17 10:58:36;;;;;;;2.73;2.50;;;19.90;37.40;;;;;;5097696;28;20406;-48
2022/01/17 11:01:13;;;;;;;2.63;2.37;;;18.70;38.20;;;;;;5098514;28;20444;-48
2022/01/17 11:03:42;;;;;;;2.20;2.00;;;17.70;39.10;;;;;;5117252;28;20426;-48
2022/01/17 11:06:11;;;;;;;3.27;2.57;;;16.80;40.10;;;;;;5118213;28;20520;-48
2022/01/17 11:08:39;;;;;;;2.50;2.30;;;15.90;41.20;;;;;;5117766;28;20422;-48
2022/01/17 11:11:07;;;;;;;2.90;2.63;;;15.20;42.20;;;;;;5118263;28;20520;-46
2022/01/17 11:13:37;;;;;;;3.77;2.87;;;14.60;43.20;;;;;;5097982;28;20469;-46
2022/01/17 11:16:07;;;;;;;2.50;2.30;;;14.20;44.10;;;;;;5082306;28;20426;-47
2022/01/17 11:18:35;;;;;;;2.77;2.47;;;13.80;44.60;;;;;;5118579;28;20418;-47
2022/01/17 11:21:11;;;;;;;2.40;2.20;;;13.60;45.20;;;;;;5119503;28;20452;-47
2022/01/17 11:23:43;;;;;;;2.47;2.23;;;13.50;45.70;;;;;;5113548;28;20475;-47
2022/01/17 11:26:10;;;;;;;2.40;1.83;;;13.40;45.90;;;;;;5116836;28;20514;-47
2022/01/17 11:28:36;;;;;;;2.53;2.00;;;13.30;46.20;;;;;;5112839;28;20478;-47
2022/01/17 11:31:06;;;;;;;2.30;2.07;;;13.10;46.50;;;;;;5112072;28;20650;-47
2022/01/17 11:33:32;;;;;;;4.13;1.73;;;12.80;47.00;;;;;;5111763;28;20466;-46
2022/01/17 11:35:58;;;;;;;3.67;2.13;;;12.80;50.80;;;;;;5111208;28;20967;-47
2022/01/17 11:38:30;;;;;;;2.17;1.60;;;13.00;58.00;;;;;;5111495;28;20800;-47
2022/01/17 11:40:59;;;;;;;1.77;1.30;;;13.20;63.30;;;;;;5094373;28;20210;-47
2022/01/17 11:43:35;;;;;;;2.73;1.40;;;13.40;66.80;;;;;;5113300;28;20438;-47
2022/01/17 11:46:18;;;;;;;1.97;1.50;;;13.70;69.30;;;;;;5111904;28;20421;-47
2022/01/17 11:48:51;;;;;;;2.10;1.30;;;14.00;68.70;;;;;;5112631;28;20489;-47
2022/01/17 11:51:17;;;;;;;3.50;1.60;;;14.30;67.40;;;;;;5113597;28;20414;-48
2022/01/17 11:53:48;;;;;;;2.03;1.60;;;14.40;66.50;;;;;;5117813;28;20482;-47
2022/01/17 11:56:16;;;;;;;3.20;2.90;;;14.60;66.10;;;;;;5118143;28;20164;-48
2022/01/17 11:58:47;;;;;;;5.27;2.03;;;14.80;66.00;;;;;;5098452;28;20430;-48
2022/01/17 12:01:16;;;;;;;2.50;1.43;;;14.90;64.80;;;;;;5117869;28;20450;-48
2022/01/17 12:03:50;;;;;;;2.50;1.20;;;14.90;62.90;;;;;;5117838;28;20425;-48
2022/01/17 12:06:36;;;;;;;1.83;1.67;;;14.80;59.70;;;;;;5081919;28;20425;-48
2022/01/17 12:09:20;;;;;;;1.80;1.60;;;14.50;57.50;;;;;;5116252;28;20449;-48
2022/01/17 12:11:53;;;;;;;4.20;2.60;;;13.90;55.10;;;;;;5115114;28;20528;-48
2022/01/17 12:14:33;;;;;;;2.80;1.80;;;13.50;54.80;;;;;;5115668;28;20468;-48
2022/01/17 12:17:32;;;;;;;2.10;1.80;;;12.90;54.70;;;;;;5095404;28;20497;-48
2022/01/17 12:20:07;;;;;;;1.70;1.57;;;12.70;55.00;;;;;;5057276;28;20490;-48
2022/01/17 12:22:39;;;;;;;2.27;1.87;;;12.60;55.40;;;;;;5115794;28;20471;-48
2022/01/17 12:25:27;;;;;;;2.07;1.70;;;12.80;55.50;;;;;;5115283;28;20413;-48
2022/01/17 12:28:05;;;;;;;1.97;1.70;;;12.80;55.10;;;;;;5097538;28;20469;-48
2022/01/17 12:30:45;;;;;;;3.23;1.50;;;12.80;54.90;;;;;;5116137;28;20700;-48
2022/01/17 12:33:28;;;;;;;1.93;1.53;;;12.60;54.60;;;;;;5097496;28;20527;-48
2022/01/17 12:35:55;;;;;;;1.57;1.33;;;12.40;54.80;;;;;;5114676;28;20517;-48
2022/01/17 12:38:40;;;;;;;2.57;1.80;;;12.20;55.10;;;;;;5099152;28;20513;-47
2022/01/17 12:41:06;;;;;;;2.00;1.80;;;12.00;55.20;;;;;;5117424;28;20421;-48
2022/01/17 12:43:34;;;;;;;2.20;2.00;;;11.80;55.50;;;;;;5117963;28;20414;-48
2022/01/17 12:46:01;;;;;;;3.00;2.40;;;11.70;55.70;;;;;;5117123;28;20434;-48
2022/01/17 12:48:32;;;;;;;2.77;2.33;;;11.60;55.70;;;;;;5117995;28;20485;-48
2022/01/17 12:51:00;;;;;;;2.73;2.20;;;11.50;55.90;;;;;;5115288;28;20422;-48
2022/01/17 12:53:27;;;;;;;2.50;2.30;;;11.40;56.10;;;;;;5113468;28;20460;-48
2022/01/17 12:55:58;;;;;;;2.87;2.20;;;11.30;56.30;;;;;;5112435;28;20866;-48
2022/01/17 12:58:28;;;;;;;1.70;1.40;;;11.20;56.30;;;;;;5092809;28;20958;-47
2022/01/17 13:01:02;;;;;;;2.37;2.07;;;11.10;56.20;;;;;;5092813;28;20432;-47
2022/01/17 13:03:32;;;;;;;2.23;2.00;;;11.10;56.40;;;;;;5096106;28;20826;-39
2022/01/17 13:06:00;;;;;;;4.57;1.97;;;11.00;56.40;;;;;;5113086;28;20870;-40
2022/01/17 13:08:26;;;;;;;2.70;1.90;;;10.90;56.50;;;;;;5114120;28;20778;-41
2022/01/17 13:10:55;;;;;;;2.63;2.43;;;10.90;56.10;;;;;;5115598;28;20421;-40
2022/01/17 13:13:21;;;;;;;2.30;1.57;;;10.80;56.30;;;;;;5116084;28;20493;-41
2022/01/17 13:16:05;;;;;;;2.53;1.90;;;10.70;56.50;;;;;;5097295;28;20457;-40
2022/01/17 13:18:31;;;;;;;2.50;1.90;;;10.70;56.80;;;;;;5115669;28;20424;-41
2022/01/17 13:21:00;;;;;;;3.03;2.60;;;10.70;57.00;;;;;;5115343;28;20513;-42
2022/01/17 13:23:57;;;;;;;3.07;2.43;;;10.70;57.00;;;;;;5113884;28;20426;-41
2022/01/17 13:26:29;;;;;;;3.00;2.77;;;10.80;56.90;;;;;;5112692;28;20675;-39